createdAt,value
2019-04-28T00:19:30.847Z,93.29
2019-04-28T00:22:28.271Z,91.76
2019-04-28T00:27:51.617Z,87.94
2019-04-28T00:36:15.021Z,84.84
2019-04-28T00:38:45.254Z,84.41
2019-04-28T00:41:34.842Z,84.38
2019-04-28T00:44:05.093Z,84.27
2019-04-28T00:46:36.597Z,86.63
2019-04-28T00:49:45.049Z,88.08
2019-04-28T00:52:34.858Z,88.89
2019-04-28T00:55:06.009Z,89.22
2019-04-28T00:57:55.285Z,89.54
2019-04-28T01:03:42.094Z,91.70
2019-04-28T01:06:14.086Z,92.88
2019-04-28T01:09:06.264Z,94.19
2019-04-28T01:11:37.977Z,94.31
2019-04-28T01:14:27.535Z,94.70
2019-04-28T01:17:16.732Z,95.90
2019-04-28T01:23:10.367Z,97.00
2019-04-28T01:25:52.049Z,98.31
2019-04-28T01:37:35.124Z,99.13
2019-04-28T01:40:22.811Z,99.25
2019-04-28T01:43:04.297Z,99.54
2019-04-28T01:45:45.454Z,99.28
2019-04-28T01:48:26.887Z,99.19
2019-04-28T01:50:57.207Z,99.54
2019-04-28T01:53:27.482Z,99.57
2019-04-28T01:56:20.430Z,99.66
2019-04-28T01:59:10.227Z,99.50
2019-04-28T02:02:00.291Z,98.76
2019-04-28T02:04:49.973Z,99.03
2019-04-28T02:07:20.635Z,98.65
2019-04-28T02:10:10.374Z,98.31
2019-04-28T02:12:40.578Z,97.54
2019-04-28T02:15:11.226Z,97.25
2019-04-28T02:18:02.813Z,97.42
2019-04-28T02:20:46.515Z,97.70
2019-04-28T02:23:30.362Z,97.66
2019-04-28T02:26:01.204Z,97.38
2019-04-28T02:28:50.523Z,97.40
2019-04-28T02:31:43.485Z,97.45
2019-04-28T02:34:13.773Z,96.83
2019-04-28T02:37:03.440Z,96.42
2019-04-28T02:39:33.760Z,96.67
2019-04-28T02:42:04.172Z,96.62
2019-04-28T02:44:53.454Z,96.85
2019-04-28T02:47:42.797Z,96.70
2019-04-28T02:53:51.313Z,94.08
2019-04-28T02:56:43.724Z,92.50
2019-04-28T02:59:31.978Z,91.98
2019-04-28T03:02:21.627Z,91.79
2019-04-28T03:05:11.788Z,91.79
2019-04-28T03:07:42.169Z,91.51
2019-04-28T03:10:12.840Z,91.75
2019-04-28T03:12:54.701Z,91.30
2019-04-28T03:15:36.440Z,91.85
2019-04-28T03:18:17.951Z,91.95
2019-04-28T03:21:03.617Z,91.77
2019-04-28T03:23:41.393Z,92.55
2019-04-28T03:29:42.305Z,93.22
2019-04-28T03:32:58.346Z,93.57
2019-04-28T03:35:43.982Z,93.86
2019-04-28T03:38:53.168Z,94.09
2019-04-28T03:41:23.600Z,94.67
2019-04-28T03:43:53.916Z,94.62
2019-04-28T03:49:43.470Z,93.67
2019-04-28T03:52:33.043Z,93.80
2019-04-28T03:55:03.870Z,94.42
2019-04-28T03:57:34.164Z,94.42
2019-04-28T04:00:05.310Z,95.04
2019-04-28T04:02:37.157Z,95.85
2019-04-28T04:05:26.365Z,96.36
2019-04-28T04:08:15.945Z,96.54
2019-04-28T04:11:05.046Z,97.00
2019-04-28T04:14:13.263Z,97.61
2019-04-28T04:17:21.398Z,98.48
2019-04-28T04:20:12.434Z,98.86
2019-04-28T04:23:01.783Z,99.25
2019-04-28T04:28:42.069Z,99.19
2019-04-28T04:31:32.108Z,99.25
2019-04-28T04:34:03.744Z,99.14
2019-04-28T04:36:53.007Z,99.27
2019-04-28T04:39:34.117Z,99.05
2019-04-28T04:44:50.134Z,98.57
2019-04-28T04:47:40.728Z,98.79
2019-04-28T04:50:31.306Z,98.69
2019-04-28T04:53:23.789Z,98.52
2019-04-28T04:56:14.895Z,98.61
2019-04-28T04:59:04.187Z,98.46
2019-04-28T05:01:56.635Z,98.40
2019-04-28T05:04:47.280Z,98.65
2019-04-28T05:07:36.844Z,98.78
2019-04-28T05:10:07.424Z,98.14
2019-04-28T05:12:56.951Z,98.24
2019-04-28T05:15:27.256Z,98.45
2019-04-28T05:18:19.967Z,98.60
2019-04-28T05:21:10.588Z,98.27
2019-04-28T05:24:20.089Z,98.65
2019-04-28T05:27:09.947Z,98.93
2019-04-28T05:29:40.595Z,98.83
2019-04-28T05:32:42.426Z,98.97
2019-04-28T05:35:21.989Z,99.14
2019-04-28T05:37:52.860Z,98.95
2019-04-28T05:40:23.421Z,98.79
2019-04-28T05:43:12.735Z,98.84
2019-04-28T05:46:07.189Z,98.66
2019-04-28T05:48:56.367Z,98.82
2019-04-28T05:51:47.168Z,98.01
2019-04-28T05:54:44.341Z,97.68
2019-04-28T05:57:35.835Z,97.38
2019-04-28T06:00:43.985Z,97.16
2019-04-28T06:06:11.079Z,96.75
2019-04-28T06:09:20.335Z,95.76
2019-04-28T06:11:54.380Z,95.05
2019-04-28T06:14:23.409Z,94.21
2019-04-28T06:16:54.025Z,93.64
2019-04-28T06:19:24.517Z,93.13
2019-04-28T06:21:54.798Z,91.98
2019-04-28T06:27:34.987Z,88.21
2019-04-28T06:30:24.886Z,88.01
2019-04-28T06:33:07.221Z,87.70
2019-04-28T06:35:27.203Z,87.45
2019-04-28T06:38:16.733Z,86.58
2019-04-28T06:41:00.391Z,83.74
2019-04-28T06:43:30.722Z,81.98
2019-04-28T06:46:20.064Z,80.79
2019-04-28T06:48:50.370Z,78.99
2019-04-28T06:51:26.068Z,78.84
2019-04-28T06:53:58.835Z,78.14
2019-04-28T06:56:48.772Z,76.65
2019-04-28T06:59:19.145Z,72.52
2019-04-28T07:01:49.482Z,72.10
2019-04-28T07:04:43.923Z,73.32
2019-04-28T07:07:33.189Z,72.23
2019-04-28T07:10:05.455Z,71.56
2019-04-28T07:12:48.190Z,70.00
2019-04-28T07:15:29.924Z,70.11
2019-04-28T07:18:11.541Z,69.12
2019-04-28T07:21:03.541Z,68.70
2019-04-28T07:23:53.203Z,68.96
2019-04-28T07:27:02.815Z,69.65
2019-04-28T07:30:00.009Z,67.98
2019-04-28T07:32:30.399Z,68.05
2019-04-28T07:35:00.718Z,67.91
2019-04-28T07:37:50.017Z,70.79
2019-04-28T07:40:20.261Z,67.89
2019-04-28T07:43:09.819Z,65.46
2019-04-28T07:45:51.488Z,68.50
2019-04-28T07:48:21.925Z,70.62
2019-04-28T07:51:21.746Z,73.03
2019-04-28T07:54:04.784Z,76.27
2019-04-28T07:56:33.774Z,81.00
2019-04-28T07:59:04.411Z,83.50
2019-04-28T08:04:40.433Z,87.59
2019-04-28T08:07:11.570Z,89.33
2019-04-28T08:09:42.301Z,89.10
2019-04-28T08:12:32.907Z,88.96
2019-04-28T08:15:22.324Z,87.43
2019-04-28T08:17:52.598Z,85.77
2019-04-28T08:20:22.941Z,84.63
2019-04-28T08:22:53.201Z,85.12
2019-04-28T08:25:25.112Z,83.55
2019-04-28T08:27:55.541Z,80.77
2019-04-28T08:30:25.849Z,79.06
2019-04-28T08:33:14.984Z,70.19
2019-04-28T08:36:04.459Z,66.22
2019-04-28T08:38:54.112Z,65.17
2019-04-28T08:41:43.392Z,59.59
2019-04-28T08:44:37.492Z,63.87
2019-04-28T08:47:07.847Z,62.43
2019-04-28T08:49:57.412Z,63.69
2019-04-28T08:52:46.701Z,62.33
2019-04-28T08:55:36.411Z,61.06
2019-04-28T09:01:17.820Z,60.60
2019-04-28T09:04:15.575Z,56.22
2019-04-28T09:06:44.708Z,56.04
2019-04-28T09:12:11.912Z,53.73
2019-04-28T09:14:42.271Z,55.50
2019-04-28T09:17:31.578Z,55.25
2019-04-28T09:20:01.837Z,53.57
2019-04-28T09:26:07.914Z,53.82
2019-04-28T09:28:57.607Z,53.86
2019-04-28T09:31:27.905Z,51.76
2019-04-28T09:33:58.313Z,56.08
2019-04-28T09:36:28.560Z,57.36
2019-04-28T09:38:59.252Z,58.19
2019-04-28T09:41:34.251Z,59.25
2019-04-28T09:44:16.128Z,60.82
2019-04-28T09:47:06.875Z,62.02
2019-04-28T09:49:38.357Z,62.37
2019-04-28T09:52:10.291Z,63.45
2019-04-28T09:55:01.017Z,59.87
2019-04-28T09:57:54.752Z,61.95
2019-04-28T10:04:10.952Z,66.56
2019-04-28T10:07:02.813Z,64.21
2019-04-28T10:09:36.191Z,63.51
2019-04-28T10:12:26.904Z,63.69
2019-04-28T10:14:54.178Z,64.02
2019-04-28T10:17:25.181Z,63.41
2019-04-28T10:20:32.844Z,62.96
2019-04-28T10:23:10.942Z,63.37
2019-04-28T10:25:41.961Z,58.71
2019-04-28T10:28:12.787Z,50.61
2019-04-28T10:31:25.660Z,48.86
2019-04-28T10:34:35.265Z,47.63
2019-04-28T10:37:07.299Z,49.82
2019-04-28T10:39:51.215Z,50.30
2019-04-28T10:45:48.048Z,53.77
2019-04-28T10:48:40.683Z,53.84
2019-04-28T10:51:39.445Z,54.91
2019-04-28T10:54:09.807Z,53.80
2019-04-28T10:56:46.084Z,55.55
2019-04-28T11:02:45.129Z,56.79
2019-04-28T11:05:36.738Z,59.54
2019-04-28T11:08:28.273Z,57.39
2019-04-28T11:11:38.891Z,58.36
2019-04-28T11:14:11.072Z,59.32
2019-04-28T11:16:42.339Z,61.53
2019-04-28T11:19:14.187Z,64.17
2019-04-28T11:22:03.883Z,69.49
2019-04-28T11:24:34.217Z,73.37
2019-04-28T11:27:25.860Z,75.93
2019-04-28T11:29:56.247Z,78.61
2019-04-28T11:32:26.641Z,82.73
2019-04-28T11:35:23.636Z,86.06
2019-04-28T11:38:15.695Z,88.28
2019-04-28T11:40:46.163Z,92.39
2019-04-28T11:43:35.445Z,96.39
2019-04-28T11:48:57.199Z,100.00
2019-04-28T11:51:29.935Z,100.00
2019-04-28T11:56:54.056Z,100.00
2019-04-28T11:59:45.880Z,100.00
2019-04-28T12:02:16.283Z,100.00
2019-04-28T12:04:51.591Z,100.00
2019-04-28T12:07:23.798Z,100.00
2019-04-28T12:10:40.201Z,100.00
2019-04-28T12:13:37.841Z,100.00
2019-04-28T12:16:27.682Z,100.00
2019-04-28T12:19:19.818Z,100.00
2019-04-28T12:25:01.325Z,100.00
2019-04-28T12:28:09.709Z,100.00
2019-04-28T12:30:40.026Z,100.00
2019-04-28T12:33:31.548Z,100.00
2019-04-28T12:36:28.088Z,100.00
2019-04-28T12:39:17.791Z,100.00
2019-04-28T12:42:00.895Z,98.22
2019-04-28T12:44:42.682Z,92.87
2019-04-28T12:50:33.331Z,84.69
2019-04-28T12:53:04.581Z,86.12
2019-04-28T12:55:38.768Z,82.57
2019-04-28T12:58:31.406Z,78.55
2019-04-28T13:01:23.543Z,78.68
2019-04-28T13:07:34.303Z,68.49
2019-04-28T13:10:05.066Z,72.40
2019-04-28T13:12:44.806Z,81.56
2019-04-28T13:18:33.470Z,73.50
2019-04-28T13:21:03.797Z,71.92
2019-04-28T13:23:54.969Z,70.37
2019-04-28T13:26:25.235Z,69.62
2019-04-28T13:31:46.668Z,54.32
2019-04-28T13:34:18.916Z,54.73
2019-04-28T13:36:53.151Z,49.33
2019-04-28T13:39:44.734Z,44.96
2019-04-28T13:42:57.788Z,46.81
2019-04-28T13:46:07.121Z,38.65
2019-04-28T13:48:57.780Z,35.64
2019-04-28T13:51:28.085Z,35.34
2019-04-28T13:57:15.772Z,30.42
2019-04-28T14:00:08.114Z,30.77
2019-04-28T14:06:12.630Z,28.84
2019-04-28T14:09:13.263Z,29.85
2019-04-28T14:11:52.845Z,28.48
2019-04-28T14:17:25.851Z,26.82
2019-04-28T14:22:43.501Z,24.31
2019-04-28T14:28:26.448Z,25.83
2019-04-28T14:30:59.524Z,25.15
2019-04-28T14:33:48.845Z,25.91
2019-04-28T14:36:19.246Z,25.85
2019-04-28T14:39:09.844Z,26.73
2019-04-28T14:41:51.956Z,34.17
2019-04-28T14:44:22.831Z,32.32
2019-04-28T14:46:53.758Z,35.43
2019-04-28T14:49:24.204Z,36.59
2019-04-28T14:51:54.470Z,42.10
2019-04-28T14:54:29.477Z,43.75
2019-04-28T14:57:02.011Z,49.62
2019-04-28T14:59:34.103Z,48.04
2019-04-28T15:02:24.589Z,54.60
2019-04-28T15:05:26.482Z,52.23
2019-04-28T15:08:15.617Z,55.44
2019-04-28T15:11:11.694Z,60.09
2019-04-28T15:13:41.933Z,58.92
2019-04-28T15:19:33.946Z,56.87
2019-04-28T15:22:05.175Z,55.30
2019-04-28T15:24:35.829Z,55.74
2019-04-28T15:27:25.804Z,58.09
2019-04-28T15:30:20.287Z,58.40
2019-04-28T15:32:52.080Z,60.70
2019-04-28T15:35:41.435Z,57.93
2019-04-28T15:38:11.762Z,57.64
2019-04-28T15:40:42.065Z,57.15
2019-04-28T15:43:34.506Z,51.27
2019-04-28T15:46:03.979Z,51.30
2019-04-28T15:48:53.640Z,53.96
2019-04-28T15:51:23.961Z,51.74
2019-04-28T15:54:13.547Z,49.10
2019-04-28T15:56:49.845Z,43.69
2019-04-28T15:59:22.387Z,46.15
2019-04-28T16:05:23.424Z,47.96
2019-04-28T16:08:16.941Z,47.90
2019-04-28T16:11:08.580Z,46.67
2019-04-28T16:13:57.869Z,46.05
2019-04-28T16:16:39.777Z,48.78
2019-04-28T16:19:22.226Z,48.22
2019-04-28T16:22:03.070Z,53.22
2019-04-28T16:27:50.019Z,53.96
2019-04-28T16:30:35.221Z,52.70
2019-04-28T16:33:24.452Z,55.01
2019-04-28T16:35:55.857Z,53.13
2019-04-28T16:41:43.310Z,54.84
2019-04-28T16:44:19.748Z,55.26
2019-04-28T16:50:03.250Z,53.87
2019-04-28T16:53:09.375Z,55.01
2019-04-28T16:56:14.616Z,54.73
2019-04-28T16:59:08.845Z,55.98
2019-04-28T17:05:02.511Z,53.26
2019-04-28T17:08:04.294Z,52.81
2019-04-28T17:10:27.351Z,52.28
2019-04-28T17:13:16.826Z,51.11
2019-04-28T17:15:59.158Z,52.47
2019-04-28T17:18:49.639Z,55.32
2019-04-28T17:21:41.776Z,56.50
2019-04-28T17:24:51.677Z,54.98
2019-04-28T17:27:22.224Z,54.87
2019-04-28T17:30:12.779Z,55.68
2019-04-28T17:32:43.697Z,54.52
2019-04-28T17:35:34.035Z,55.80
2019-04-28T17:44:36.551Z,57.15
2019-04-28T17:47:06.961Z,56.67
2019-04-28T17:49:38.559Z,57.33
2019-04-28T17:52:32.803Z,58.54
2019-04-28T17:55:03.416Z,58.06
2019-04-28T17:57:39.830Z,59.43
2019-04-28T18:00:34.218Z,62.55
2019-04-28T18:07:00.219Z,58.70
2019-04-28T18:09:33.875Z,58.94
2019-04-28T18:12:23.797Z,61.05
2019-04-28T18:20:36.744Z,61.15
2019-04-28T18:23:48.845Z,61.16
2019-04-28T18:26:19.797Z,61.84
2019-04-28T18:28:50.370Z,64.01
2019-04-28T18:31:59.469Z,64.19
2019-04-28T18:34:51.343Z,64.45
2019-04-28T18:38:04.495Z,65.54
2019-04-28T18:41:07.930Z,65.30
2019-04-28T18:43:50.191Z,66.63
2019-04-28T18:46:32.868Z,66.54
2019-04-28T18:49:18.164Z,66.29
2019-04-28T18:52:05.604Z,67.20
2019-04-28T18:58:01.240Z,68.00
2019-04-28T19:06:47.921Z,68.02
2019-04-28T19:12:53.992Z,67.79
2019-04-28T19:15:58.751Z,68.00
2019-04-28T19:22:01.354Z,69.26
2019-04-28T19:24:51.324Z,68.42
2019-04-28T19:27:59.624Z,69.20
2019-04-28T19:30:53.611Z,69.50
2019-04-28T19:33:36.687Z,68.50
2019-04-28T19:36:26.384Z,70.67
2019-04-28T19:39:03.528Z,70.06
2019-04-28T19:41:51.170Z,71.45
2019-04-28T19:44:25.650Z,71.48
2019-04-28T19:46:58.467Z,71.40
2019-04-28T19:49:49.515Z,72.07
2019-04-28T19:52:42.548Z,73.70
2019-04-28T19:55:35.513Z,70.45
2019-04-28T19:58:44.699Z,68.82
2019-04-28T20:04:32.144Z,70.13
2019-04-28T20:10:19.349Z,69.41
2019-04-28T20:12:51.094Z,72.60
2019-04-28T20:19:24.584Z,76.77
2019-04-28T20:22:13.760Z,77.02
2019-04-28T20:25:29.977Z,78.98
2019-04-28T20:28:00.227Z,79.57
2019-04-28T20:33:22.630Z,77.94
2019-04-28T20:42:22.092Z,75.36
2019-04-28T20:45:11.726Z,75.22
2019-04-28T20:48:01.798Z,76.28
2019-04-28T20:50:52.744Z,75.42
2019-04-28T20:53:42.149Z,75.49
2019-04-28T20:56:32.351Z,75.42
2019-04-28T20:59:21.542Z,76.90
2019-04-28T21:02:32.735Z,77.68
2019-04-28T21:05:25.158Z,79.37
2019-04-28T21:08:14.734Z,78.32
2019-04-28T21:11:25.229Z,78.17
2019-04-28T21:13:56.011Z,77.30
2019-04-28T21:16:45.775Z,75.79
2019-04-28T21:19:33.178Z,73.88
2019-04-28T21:22:05.791Z,73.59
2019-04-28T21:24:55.272Z,71.98
2019-04-28T21:27:27.696Z,73.78
2019-04-28T21:30:18.626Z,72.39
2019-04-28T21:36:07.716Z,73.71
2019-04-28T21:38:38.551Z,74.97
2019-04-28T21:47:43.440Z,77.63
2019-04-28T21:50:33.204Z,79.05
2019-04-28T21:53:22.873Z,77.65
2019-04-28T21:56:12.254Z,78.78
2019-04-28T21:59:01.998Z,78.81
2019-04-28T22:01:32.887Z,78.73
2019-04-28T22:04:23.153Z,79.89
2019-04-28T22:09:46.943Z,79.99
2019-04-28T22:12:17.770Z,79.38
2019-04-28T22:15:13.145Z,80.06
2019-04-28T22:17:44.631Z,79.81
2019-04-28T22:20:15.346Z,80.41
2019-04-28T22:22:45.809Z,80.12
2019-04-28T22:28:15.498Z,81.31
2019-04-28T22:30:46.730Z,82.17
2019-04-28T22:33:41.217Z,82.29
2019-04-28T22:36:31.268Z,82.10
2019-04-28T22:39:02.983Z,83.13
2019-04-28T22:41:53.925Z,83.94
2019-04-28T22:44:34.019Z,85.45
2019-04-28T22:47:04.364Z,86.11
2019-04-28T22:50:12.618Z,87.00
2019-04-28T22:53:01.904Z,87.37
2019-04-28T22:58:55.582Z,86.87
2019-04-28T23:02:06.879Z,88.18
2019-04-28T23:04:57.372Z,89.04
2019-04-28T23:07:47.094Z,89.21
2019-04-28T23:10:19.187Z,89.29
2019-04-28T23:12:50.355Z,89.44
2019-04-28T23:15:41.179Z,89.57
2019-04-28T23:18:30.856Z,89.76
2019-04-28T23:21:39.332Z,89.92
2019-04-28T23:24:30.243Z,90.46
2019-04-28T23:27:19.793Z,90.22
2019-04-28T23:30:01.876Z,90.74
2019-04-28T23:32:42.429Z,91.23
2019-04-28T23:35:12.895Z,91.38
2019-04-28T23:38:02.276Z,91.52
2019-04-28T23:40:32.881Z,91.51
2019-04-28T23:46:19.511Z,92.73
2019-04-28T23:49:31.556Z,92.95
2019-04-28T23:52:18.929Z,93.27
2019-04-28T23:54:51.128Z,93.19
2019-04-28T23:58:00.803Z,93.69
